sensor_id;sensor_type;location;lat;lon;timestamp;P1;durP1;ratioP1;P2;durP2;ratioP2
5277;SDS011;2662;51.194;6.614;2023-04-03T00:00:36;5.33;;;3.50;;
5277;SDS011;2662;51.194;6.614;2023-04-03T00:03:03;3.27;;;2.97;;
5277;SDS011;2662;51.194;6.614;2023-04-03T00:05:30;4.00;;;3.30;;
5277;SDS011;2662;51.194;6.614;2023-04-03T00:07:56;9.23;;;3.47;;
5277;SDS011;2662;51.194;6.614;2023-04-03T00:10:25;3.10;;;2.80;;
5277;SDS011;2662;51.194;6.614;2023-04-03T00:12:51;3.80;;;2.97;;
5277;SDS011;2662;51.194;6.614;2023-04-03T00:15:18;5.23;;;3.17;;
5277;SDS011;2662;51.194;6.614;2023-04-03T00:17:45;5.10;;;3.47;;
5277;SDS011;2662;51.194;6.614;2023-04-03T00:20:12;5.70;;;2.67;;
5277;SDS011;2662;51.194;6.614;2023-04-03T00:22:38;3.27;;;2.87;;
5277;SDS011;2662;51.194;6.614;2023-04-03T00:25:05;6.73;;;3.60;;
5277;SDS011;2662;51.194;6.614;2023-04-03T00:27:35;7.70;;;3.07;;
5277;SDS011;2662;51.194;6.614;2023-04-03T00:30:03;7.03;;;3.17;;
5277;SDS011;2662;51.194;6.614;2023-04-03T00:32:30;6.27;;;3.50;;
5277;SDS011;2662;51.194;6.614;2023-04-03T00:34:57;3.13;;;2.93;;
5277;SDS011;2662;51.194;6.614;2023-04-03T00:37:23;3.00;;;2.70;;
5277;SDS011;2662;51.194;6.614;2023-04-03T00:39:50;5.47;;;3.20;;
5277;SDS011;2662;51.194;6.614;2023-04-03T00:42:17;5.53;;;2.73;;
5277;SDS011;2662;51.194;6.614;2023-04-03T00:48:01;4.80;;;2.97;;
5277;SDS011;2662;51.194;6.614;2023-04-03T00:50:31;7.40;;;3.30;;
5277;SDS011;2662;51.194;6.614;2023-04-03T00:53:00;6.23;;;3.20;;
5277;SDS011;2662;51.194;6.614;2023-04-03T00:55:27;4.80;;;3.40;;
5277;SDS011;2662;51.194;6.614;2023-04-03T00:57:55;4.50;;;3.50;;
5277;SDS011;2662;51.194;6.614;2023-04-03T01:00:23;5.07;;;3.50;;
5277;SDS011;2662;51.194;6.614;2023-04-03T01:02:51;6.20;;;3.50;;
5277;SDS011;2662;51.194;6.614;2023-04-03T01:05:19;3.70;;;3.40;;
5277;SDS011;2662;51.194;6.614;2023-04-03T01:07:47;3.00;;;2.60;;
5277;SDS011;2662;51.194;6.614;2023-04-03T01:10:16;8.80;;;3.53;;
5277;SDS011;2662;51.194;6.614;2023-04-03T01:12:45;6.70;;;3.83;;
5277;SDS011;2662;51.194;6.614;2023-04-03T01:15:14;3.73;;;3.33;;
5277;SDS011;2662;51.194;6.614;2023-04-03T01:17:43;7.27;;;4.10;;
5277;SDS011;2662;51.194;6.614;2023-04-03T01:20:21;5.70;;;4.07;;
5277;SDS011;2662;51.194;6.614;2023-04-03T01:23:21;5.40;;;3.70;;
5277;SDS011;2662;51.194;6.614;2023-04-03T01:25:53;6.77;;;3.73;;
5277;SDS011;2662;51.194;6.614;2023-04-03T01:28:24;11.17;;;3.70;;
5277;SDS011;2662;51.194;6.614;2023-04-03T01:30:55;6.50;;;3.53;;
5277;SDS011;2662;51.194;6.614;2023-04-03T01:33:28;4.53;;;3.77;;
5277;SDS011;2662;51.194;6.614;2023-04-03T01:35:55;6.47;;;3.30;;
5277;SDS011;2662;51.194;6.614;2023-04-03T01:38:21;7.13;;;3.90;;
5277;SDS011;2662;51.194;6.614;2023-04-03T01:40:48;7.07;;;4.20;;
5277;SDS011;2662;51.194;6.614;2023-04-03T01:43:15;5.80;;;4.03;;
5277;SDS011;2662;51.194;6.614;2023-04-03T01:45:42;7.70;;;4.10;;
5277;SDS011;2662;51.194;6.614;2023-04-03T01:48:09;4.40;;;3.60;;
5277;SDS011;2662;51.194;6.614;2023-04-03T01:50:37;6.37;;;4.00;;
5277;SDS011;2662;51.194;6.614;2023-04-03T01:53:04;5.03;;;3.63;;
5277;SDS011;2662;51.194;6.614;2023-04-03T01:55:31;5.50;;;4.03;;
5277;SDS011;2662;51.194;6.614;2023-04-03T01:57:57;7.80;;;4.03;;
5277;SDS011;2662;51.194;6.614;2023-04-03T02:00:24;8.80;;;4.10;;
5277;SDS011;2662;51.194;6.614;2023-04-03T02:02:52;6.07;;;4.00;;
5277;SDS011;2662;51.194;6.614;2023-04-03T02:05:19;5.50;;;4.07;;
5277;SDS011;2662;51.194;6.614;2023-04-03T02:07:47;6.53;;;3.90;;
5277;SDS011;2662;51.194;6.614;2023-04-03T02:10:14;6.80;;;4.57;;
5277;SDS011;2662;51.194;6.614;2023-04-03T02:12:41;6.33;;;4.73;;
5277;SDS011;2662;51.194;6.614;2023-04-03T02:15:08;10.63;;;4.77;;
5277;SDS011;2662;51.194;6.614;2023-04-03T02:17:35;7.30;;;4.87;;
5277;SDS011;2662;51.194;6.614;2023-04-03T02:20:02;6.20;;;4.50;;
5277;SDS011;2662;51.194;6.614;2023-04-03T02:22:29;7.63;;;4.93;;
5277;SDS011;2662;51.194;6.614;2023-04-03T02:24:57;5.60;;;3.90;;
5277;SDS011;2662;51.194;6.614;2023-04-03T02:27:24;11.47;;;5.00;;
5277;SDS011;2662;51.194;6.614;2023-04-03T02:29:51;7.53;;;4.70;;
5277;SDS011;2662;51.194;6.614;2023-04-03T02:32:18;4.77;;;4.23;;
5277;SDS011;2662;51.194;6.614;2023-04-03T02:34:44;8.77;;;4.53;;
5277;SDS011;2662;51.194;6.614;2023-04-03T02:37:11;7.77;;;4.97;;
5277;SDS011;2662;51.194;6.614;2023-04-03T02:39:38;4.77;;;4.20;;
5277;SDS011;2662;51.194;6.614;2023-04-03T02:42:06;6.73;;;4.37;;
5277;SDS011;2662;51.194;6.614;2023-04-03T02:44:33;6.33;;;4.40;;
5277;SDS011;2662;51.194;6.614;2023-04-03T02:47:00;7.00;;;5.40;;
5277;SDS011;2662;51.194;6.614;2023-04-03T02:49:27;6.50;;;4.70;;
5277;SDS011;2662;51.194;6.614;2023-04-03T02:51:54;11.70;;;5.63;;
5277;SDS011;2662;51.194;6.614;2023-04-03T02:54:21;10.07;;;5.70;;
5277;SDS011;2662;51.194;6.614;2023-04-03T02:56:48;7.37;;;4.90;;
5277;SDS011;2662;51.194;6.614;2023-04-03T02:59:16;8.70;;;5.17;;
5277;SDS011;2662;51.194;6.614;2023-04-03T03:01:43;6.93;;;4.60;;
5277;SDS011;2662;51.194;6.614;2023-04-03T03:04:10;6.17;;;4.60;;
5277;SDS011;2662;51.194;6.614;2023-04-03T03:06:36;11.07;;;4.80;;
5277;SDS011;2662;51.194;6.614;2023-04-03T03:09:03;7.20;;;4.77;;
5277;SDS011;2662;51.194;6.614;2023-04-03T03:11:30;8.07;;;5.07;;
5277;SDS011;2662;51.194;6.614;2023-04-03T03:13:57;8.70;;;4.93;;
5277;SDS011;2662;51.194;6.614;2023-04-03T03:16:25;10.10;;;5.50;;
5277;SDS011;2662;51.194;6.614;2023-04-03T03:18:52;11.40;;;6.20;;
5277;SDS011;2662;51.194;6.614;2023-04-03T03:21:19;10.30;;;5.50;;
5277;SDS011;2662;51.194;6.614;2023-04-03T03:23:45;26.13;;;5.27;;
5277;SDS011;2662;51.194;6.614;2023-04-03T03:26:12;10.20;;;5.70;;
5277;SDS011;2662;51.194;6.614;2023-04-03T03:28:39;7.47;;;4.70;;
5277;SDS011;2662;51.194;6.614;2023-04-03T03:31:06;6.77;;;5.07;;
5277;SDS011;2662;51.194;6.614;2023-04-03T03:33:36;7.63;;;4.60;;
5277;SDS011;2662;51.194;6.614;2023-04-03T03:36:03;6.70;;;5.33;;
5277;SDS011;2662;51.194;6.614;2023-04-03T03:38:30;5.53;;;4.30;;
5277;SDS011;2662;51.194;6.614;2023-04-03T03:40:57;5.40;;;4.70;;
5277;SDS011;2662;51.194;6.614;2023-04-03T03:43:23;7.27;;;5.03;;
5277;SDS011;2662;51.194;6.614;2023-04-03T03:45:50;5.07;;;4.53;;
5277;SDS011;2662;51.194;6.614;2023-04-03T03:48:18;9.07;;;5.17;;
5277;SDS011;2662;51.194;6.614;2023-04-03T03:50:46;5.53;;;4.17;;
5277;SDS011;2662;51.194;6.614;2023-04-03T03:53:13;8.13;;;4.47;;
5277;SDS011;2662;51.194;6.614;2023-04-03T03:55:41;6.07;;;4.77;;
5277;SDS011;2662;51.194;6.614;2023-04-03T03:58:08;5.07;;;4.20;;
5277;SDS011;2662;51.194;6.614;2023-04-03T04:00:34;6.73;;;4.30;;
5277;SDS011;2662;51.194;6.614;2023-04-03T04:03:01;7.17;;;4.50;;
5277;SDS011;2662;51.194;6.614;2023-04-03T04:05:28;9.77;;;4.20;;
5277;SDS011;2662;51.194;6.614;2023-04-03T04:07:56;5.70;;;4.80;;
5277;SDS011;2662;51.194;6.614;2023-04-03T04:10:23;9.03;;;3.77;;
5277;SDS011;2662;51.194;6.614;2023-04-03T04:12:50;6.57;;;4.00;;
5277;SDS011;2662;51.194;6.614;2023-04-03T04:15:17;4.60;;;3.90;;
5277;SDS011;2662;51.194;6.614;2023-04-03T04:17:44;6.77;;;3.60;;
5277;SDS011;2662;51.194;6.614;2023-04-03T04:20:10;4.27;;;3.20;;
5277;SDS011;2662;51.194;6.614;2023-04-03T04:22:38;6.47;;;3.77;;
5277;SDS011;2662;51.194;6.614;2023-04-03T04:25:06;6.80;;;3.30;;
5277;SDS011;2662;51.194;6.614;2023-04-03T04:27:33;6.60;;;3.30;;
5277;SDS011;2662;51.194;6.614;2023-04-03T04:30:00;3.60;;;3.03;;
5277;SDS011;2662;51.194;6.614;2023-04-03T04:32:27;5.93;;;3.13;;
5277;SDS011;2662;51.194;6.614;2023-04-03T04:34:54;5.53;;;3.17;;
5277;SDS011;2662;51.194;6.614;2023-04-03T04:37:21;11.60;;;3.47;;
5277;SDS011;2662;51.194;6.614;2023-04-03T04:39:47;4.90;;;3.37;;
5277;SDS011;2662;51.194;6.614;2023-04-03T04:42:16;8.83;;;3.30;;
5277;SDS011;2662;51.194;6.614;2023-04-03T04:44:42;8.60;;;3.17;;
5277;SDS011;2662;51.194;6.614;2023-04-03T04:47:09;8.30;;;3.97;;
5277;SDS011;2662;51.194;6.614;2023-04-03T04:49:36;6.33;;;4.10;;
5277;SDS011;2662;51.194;6.614;2023-04-03T04:52:03;4.83;;;3.27;;
5277;SDS011;2662;51.194;6.614;2023-04-03T04:54:30;9.83;;;3.70;;
5277;SDS011;2662;51.194;6.614;2023-04-03T04:56:56;7.43;;;3.90;;
5277;SDS011;2662;51.194;6.614;2023-04-03T04:59:24;4.30;;;2.97;;
5277;SDS011;2662;51.194;6.614;2023-04-03T05:01:51;7.50;;;3.23;;
5277;SDS011;2662;51.194;6.614;2023-04-03T05:04:18;6.03;;;3.60;;
5277;SDS011;2662;51.194;6.614;2023-04-03T05:06:45;6.73;;;2.90;;
5277;SDS011;2662;51.194;6.614;2023-04-03T05:09:11;7.47;;;3.30;;
5277;SDS011;2662;51.194;6.614;2023-04-03T05:11:38;4.73;;;3.00;;
5277;SDS011;2662;51.194;6.614;2023-04-03T05:14:05;4.60;;;2.70;;
5277;SDS011;2662;51.194;6.614;2023-04-03T05:16:33;5.33;;;3.03;;
5277;SDS011;2662;51.194;6.614;2023-04-03T05:19:00;4.93;;;2.83;;
5277;SDS011;2662;51.194;6.614;2023-04-03T05:21:27;5.43;;;2.80;;
5277;SDS011;2662;51.194;6.614;2023-04-03T05:23:57;4.50;;;2.90;;
5277;SDS011;2662;51.194;6.614;2023-04-03T05:26:27;7.40;;;2.73;;
5277;SDS011;2662;51.194;6.614;2023-04-03T05:28:54;3.87;;;2.57;;
5277;SDS011;2662;51.194;6.614;2023-04-03T05:31:21;4.60;;;2.40;;
5277;SDS011;2662;51.194;6.614;2023-04-03T05:33:49;5.57;;;2.60;;
5277;SDS011;2662;51.194;6.614;2023-04-03T05:36:15;3.73;;;2.50;;
5277;SDS011;2662;51.194;6.614;2023-04-03T05:38:42;3.00;;;2.20;;
5277;SDS011;2662;51.194;6.614;2023-04-03T05:41:09;5.17;;;2.60;;
5277;SDS011;2662;51.194;6.614;2023-04-03T05:43:36;4.80;;;2.73;;
5277;SDS011;2662;51.194;6.614;2023-04-03T05:46:04;2.60;;;2.40;;
5277;SDS011;2662;51.194;6.614;2023-04-03T05:48:34;2.27;;;1.93;;
5277;SDS011;2662;51.194;6.614;2023-04-03T05:51:03;7.73;;;2.80;;
5277;SDS011;2662;51.194;6.614;2023-04-03T05:53:31;8.23;;;2.43;;
5277;SDS011;2662;51.194;6.614;2023-04-03T05:56:00;4.23;;;2.10;;
5277;SDS011;2662;51.194;6.614;2023-04-03T05:58:27;3.17;;;2.10;;
5277;SDS011;2662;51.194;6.614;2023-04-03T06:00:53;5.87;;;2.97;;
5277;SDS011;2662;51.194;6.614;2023-04-03T06:03:20;3.03;;;2.33;;
5277;SDS011;2662;51.194;6.614;2023-04-03T06:05:47;2.77;;;1.90;;
5277;SDS011;2662;51.194;6.614;2023-04-03T06:08:15;6.20;;;2.83;;
5277;SDS011;2662;51.194;6.614;2023-04-03T06:10:42;7.30;;;2.33;;
5277;SDS011;2662;51.194;6.614;2023-04-03T06:13:08;2.50;;;1.97;;
5277;SDS011;2662;51.194;6.614;2023-04-03T06:15:36;8.47;;;2.13;;
5277;SDS011;2662;51.194;6.614;2023-04-03T06:18:03;5.40;;;2.27;;
5277;SDS011;2662;51.194;6.614;2023-04-03T06:20:30;4.27;;;2.17;;
5277;SDS011;2662;51.194;6.614;2023-04-03T06:22:57;3.40;;;1.93;;
5277;SDS011;2662;51.194;6.614;2023-04-03T06:25:25;7.70;;;2.20;;
5277;SDS011;2662;51.194;6.614;2023-04-03T06:27:51;11.33;;;2.60;;
5277;SDS011;2662;51.194;6.614;2023-04-03T06:30:20;4.57;;;2.20;;
5277;SDS011;2662;51.194;6.614;2023-04-03T06:32:47;3.00;;;2.10;;
5277;SDS011;2662;51.194;6.614;2023-04-03T06:35:14;3.80;;;2.07;;
5277;SDS011;2662;51.194;6.614;2023-04-03T06:37:40;5.40;;;2.30;;
5277;SDS011;2662;51.194;6.614;2023-04-03T06:40:09;3.03;;;2.07;;
5277;SDS011;2662;51.194;6.614;2023-04-03T06:42:45;3.80;;;1.87;;
5277;SDS011;2662;51.194;6.614;2023-04-03T06:45:12;2.90;;;2.10;;
5277;SDS011;2662;51.194;6.614;2023-04-03T06:47:38;10.13;;;2.07;;
5277;SDS011;2662;51.194;6.614;2023-04-03T06:50:05;4.83;;;2.27;;
5277;SDS011;2662;51.194;6.614;2023-04-03T06:52:34;4.83;;;1.90;;
5277;SDS011;2662;51.194;6.614;2023-04-03T06:55:00;9.10;;;2.73;;
5277;SDS011;2662;51.194;6.614;2023-04-03T06:57:27;4.20;;;2.20;;
5277;SDS011;2662;51.194;6.614;2023-04-03T06:59:55;5.90;;;1.83;;
5277;SDS011;2662;51.194;6.614;2023-04-03T07:02:22;6.13;;;1.80;;
5277;SDS011;2662;51.194;6.614;2023-04-03T07:04:49;2.50;;;1.97;;
5277;SDS011;2662;51.194;6.614;2023-04-03T07:07:16;4.10;;;2.13;;
5277;SDS011;2662;51.194;6.614;2023-04-03T07:09:43;6.10;;;1.93;;
5277;SDS011;2662;51.194;6.614;2023-04-03T07:12:11;4.23;;;2.20;;
5277;SDS011;2662;51.194;6.614;2023-04-03T07:14:38;7.33;;;2.10;;
5277;SDS011;2662;51.194;6.614;2023-04-03T07:17:06;5.10;;;1.70;;
5277;SDS011;2662;51.194;6.614;2023-04-03T07:19:33;4.00;;;2.00;;
5277;SDS011;2662;51.194;6.614;2023-04-03T07:22:00;4.00;;;1.80;;
5277;SDS011;2662;51.194;6.614;2023-04-03T07:24:27;6.57;;;2.27;;
5277;SDS011;2662;51.194;6.614;2023-04-03T07:26:53;2.50;;;1.60;;
5277;SDS011;2662;51.194;6.614;2023-04-03T07:29:20;3.47;;;2.10;;
5277;SDS011;2662;51.194;6.614;2023-04-03T07:31:47;3.20;;;1.60;;
5277;SDS011;2662;51.194;6.614;2023-04-03T07:34:15;4.60;;;1.57;;
5277;SDS011;2662;51.194;6.614;2023-04-03T07:36:42;3.23;;;2.07;;
5277;SDS011;2662;51.194;6.614;2023-04-03T07:39:09;6.60;;;2.13;;
5277;SDS011;2662;51.194;6.614;2023-04-03T07:41:36;2.80;;;1.53;;
5277;SDS011;2662;51.194;6.614;2023-04-03T07:44:03;1.90;;;1.50;;
5277;SDS011;2662;51.194;6.614;2023-04-03T07:46:30;5.80;;;1.80;;
5277;SDS011;2662;51.194;6.614;2023-04-03T07:48:57;2.23;;;1.60;;
5277;SDS011;2662;51.194;6.614;2023-04-03T07:51:25;8.47;;;1.97;;
5277;SDS011;2662;51.194;6.614;2023-04-03T07:53:53;3.57;;;1.73;;
5277;SDS011;2662;51.194;6.614;2023-04-03T07:56:20;3.03;;;1.50;;
5277;SDS011;2662;51.194;6.614;2023-04-03T07:58:47;4.50;;;1.63;;
5277;SDS011;2662;51.194;6.614;2023-04-03T08:01:14;3.20;;;1.90;;
5277;SDS011;2662;51.194;6.614;2023-04-03T08:03:41;2.93;;;1.57;;
5277;SDS011;2662;51.194;6.614;2023-04-03T08:06:08;3.10;;;1.30;;
5277;SDS011;2662;51.194;6.614;2023-04-03T08:08:37;6.43;;;2.03;;
5277;SDS011;2662;51.194;6.614;2023-04-03T08:11:03;3.40;;;1.43;;
5277;SDS011;2662;51.194;6.614;2023-04-03T08:13:31;7.10;;;2.07;;
5277;SDS011;2662;51.194;6.614;2023-04-03T08:16:06;8.83;;;2.20;;
5277;SDS011;2662;51.194;6.614;2023-04-03T08:18:34;3.37;;;1.33;;
5277;SDS011;2662;51.194;6.614;2023-04-03T08:21:01;2.43;;;1.30;;
5277;SDS011;2662;51.194;6.614;2023-04-03T08:23:32;3.10;;;1.63;;
5277;SDS011;2662;51.194;6.614;2023-04-03T08:26:00;10.73;;;1.67;;
5277;SDS011;2662;51.194;6.614;2023-04-03T08:28:32;2.40;;;1.17;;
5277;SDS011;2662;51.194;6.614;2023-04-03T08:31:02;3.27;;;1.40;;
5277;SDS011;2662;51.194;6.614;2023-04-03T08:33:30;4.50;;;1.13;;
5277;SDS011;2662;51.194;6.614;2023-04-03T08:35:57;3.17;;;1.17;;
5277;SDS011;2662;51.194;6.614;2023-04-03T08:38:24;2.50;;;0.93;;
5277;SDS011;2662;51.194;6.614;2023-04-03T08:41:00;1.47;;;1.07;;
5277;SDS011;2662;51.194;6.614;2023-04-03T08:43:35;2.07;;;1.00;;
5277;SDS011;2662;51.194;6.614;2023-04-03T08:46:06;5.80;;;1.23;;
5277;SDS011;2662;51.194;6.614;2023-04-03T08:48:38;3.73;;;0.90;;
5277;SDS011;2662;51.194;6.614;2023-04-03T08:51:09;1.63;;;1.00;;
5277;SDS011;2662;51.194;6.614;2023-04-03T08:53:40;5.33;;;1.37;;
5277;SDS011;2662;51.194;6.614;2023-04-03T08:56:11;1.80;;;0.93;;
5277;SDS011;2662;51.194;6.614;2023-04-03T08:58:41;7.13;;;1.37;;
5277;SDS011;2662;51.194;6.614;2023-04-03T09:01:15;1.30;;;0.87;;
5277;SDS011;2662;51.194;6.614;2023-04-03T09:03:44;1.10;;;1.00;;
5277;SDS011;2662;51.194;6.614;2023-04-03T09:06:12;1.40;;;0.70;;
5277;SDS011;2662;51.194;6.614;2023-04-03T09:08:43;4.30;;;1.00;;
5277;SDS011;2662;51.194;6.614;2023-04-03T09:11:18;1.53;;;0.80;;
5277;SDS011;2662;51.194;6.614;2023-04-03T09:13:57;3.83;;;1.07;;
5277;SDS011;2662;51.194;6.614;2023-04-03T09:16:33;2.10;;;1.10;;
5277;SDS011;2662;51.194;6.614;2023-04-03T09:19:07;6.30;;;1.10;;
5277;SDS011;2662;51.194;6.614;2023-04-03T09:21:41;1.20;;;0.80;;
5277;SDS011;2662;51.194;6.614;2023-04-03T09:24:09;2.27;;;1.07;;
5277;SDS011;2662;51.194;6.614;2023-04-03T09:26:41;1.97;;;0.90;;
5277;SDS011;2662;51.194;6.614;2023-04-03T09:29:13;1.97;;;0.87;;
5277;SDS011;2662;51.194;6.614;2023-04-03T09:31:44;1.83;;;0.83;;
5277;SDS011;2662;51.194;6.614;2023-04-03T09:34:14;1.67;;;0.80;;
5277;SDS011;2662;51.194;6.614;2023-04-03T09:36:47;0.67;;;0.60;;
5277;SDS011;2662;51.194;6.614;2023-04-03T09:39:17;1.90;;;0.70;;
5277;SDS011;2662;51.194;6.614;2023-04-03T09:41:56;2.07;;;0.90;;
5277;SDS011;2662;51.194;6.614;2023-04-03T09:44:25;6.20;;;1.00;;
5277;SDS011;2662;51.194;6.614;2023-04-03T09:46:54;1.23;;;0.80;;
5277;SDS011;2662;51.194;6.614;2023-04-03T09:49:21;1.57;;;0.90;;
5277;SDS011;2662;51.194;6.614;2023-04-03T09:51:48;0.97;;;0.93;;
5277;SDS011;2662;51.194;6.614;2023-04-03T09:54:26;1.03;;;0.90;;
5277;SDS011;2662;51.194;6.614;2023-04-03T09:57:00;3.00;;;1.27;;
5277;SDS011;2662;51.194;6.614;2023-04-03T09:59:31;2.77;;;1.00;;
5277;SDS011;2662;51.194;6.614;2023-04-03T10:01:58;2.87;;;0.80;;
5277;SDS011;2662;51.194;6.614;2023-04-03T10:04:36;1.33;;;0.97;;
5277;SDS011;2662;51.194;6.614;2023-04-03T10:07:05;2.03;;;1.03;;
5277;SDS011;2662;51.194;6.614;2023-04-03T10:09:54;3.30;;;1.13;;
5277;SDS011;2662;51.194;6.614;2023-04-03T10:12:23;3.30;;;0.90;;
5277;SDS011;2662;51.194;6.614;2023-04-03T10:14:54;1.37;;;1.07;;
5277;SDS011;2662;51.194;6.614;2023-04-03T10:17:23;3.27;;;1.20;;
5277;SDS011;2662;51.194;6.614;2023-04-03T10:20:00;2.63;;;1.10;;
5277;SDS011;2662;51.194;6.614;2023-04-03T10:22:31;2.90;;;1.10;;
5277;SDS011;2662;51.194;6.614;2023-04-03T10:25:10;2.20;;;1.03;;
5277;SDS011;2662;51.194;6.614;2023-04-03T10:27:47;1.83;;;1.03;;
5277;SDS011;2662;51.194;6.614;2023-04-03T10:30:27;1.53;;;0.93;;
5277;SDS011;2662;51.194;6.614;2023-04-03T10:33:04;2.63;;;1.07;;
5277;SDS011;2662;51.194;6.614;2023-04-03T10:35:44;1.33;;;1.00;;
5277;SDS011;2662;51.194;6.614;2023-04-03T10:38:22;1.30;;;1.20;;
5277;SDS011;2662;51.194;6.614;2023-04-03T10:40:57;1.67;;;1.00;;
5277;SDS011;2662;51.194;6.614;2023-04-03T10:43:32;2.00;;;1.00;;
5277;SDS011;2662;51.194;6.614;2023-04-03T10:46:03;2.37;;;1.20;;
5277;SDS011;2662;51.194;6.614;2023-04-03T10:48:40;2.63;;;1.13;;
5277;SDS011;2662;51.194;6.614;2023-04-03T10:51:17;2.40;;;1.30;;
5277;SDS011;2662;51.194;6.614;2023-04-03T10:53:51;3.80;;;1.10;;
5277;SDS011;2662;51.194;6.614;2023-04-03T10:56:26;1.73;;;1.10;;
5277;SDS011;2662;51.194;6.614;2023-04-03T10:59:01;2.10;;;0.77;;
5277;SDS011;2662;51.194;6.614;2023-04-03T11:01:35;1.93;;;1.07;;
5277;SDS011;2662;51.194;6.614;2023-04-03T11:04:05;2.87;;;1.20;;
5277;SDS011;2662;51.194;6.614;2023-04-03T11:06:34;1.47;;;1.07;;
5277;SDS011;2662;51.194;6.614;2023-04-03T11:09:05;2.27;;;1.03;;
5277;SDS011;2662;51.194;6.614;2023-04-03T11:11:40;1.53;;;1.10;;
5277;SDS011;2662;51.194;6.614;2023-04-03T11:14:11;6.00;;;1.10;;
5277;SDS011;2662;51.194;6.614;2023-04-03T11:16:45;2.50;;;0.97;;
5277;SDS011;2662;51.194;6.614;2023-04-03T11:19:15;4.40;;;1.13;;
5277;SDS011;2662;51.194;6.614;2023-04-03T11:21:48;4.10;;;1.20;;
5277;SDS011;2662;51.194;6.614;2023-04-03T11:24:22;2.77;;;1.03;;
5277;SDS011;2662;51.194;6.614;2023-04-03T11:26:51;3.53;;;1.00;;
5277;SDS011;2662;51.194;6.614;2023-04-03T11:29:22;1.13;;;1.00;;
5277;SDS011;2662;51.194;6.614;2023-04-03T11:32:02;3.47;;;1.10;;
5277;SDS011;2662;51.194;6.614;2023-04-03T11:34:36;1.17;;;1.07;;
5277;SDS011;2662;51.194;6.614;2023-04-03T11:37:11;2.47;;;1.20;;
5277;SDS011;2662;51.194;6.614;2023-04-03T11:39:45;2.50;;;1.00;;
5277;SDS011;2662;51.194;6.614;2023-04-03T11:42:16;2.70;;;1.20;;
5277;SDS011;2662;51.194;6.614;2023-04-03T11:44:51;1.50;;;0.90;;
5277;SDS011;2662;51.194;6.614;2023-04-03T11:47:44;1.10;;;0.80;;
5277;SDS011;2662;51.194;6.614;2023-04-03T11:55:58;1.30;;;0.80;;
5277;SDS011;2662;51.194;6.614;2023-04-03T11:58:27;1.00;;;0.60;;
5277;SDS011;2662;51.194;6.614;2023-04-03T12:00:58;1.63;;;0.80;;
5277;SDS011;2662;51.194;6.614;2023-04-03T12:03:34;1.07;;;0.70;;
5277;SDS011;2662;51.194;6.614;2023-04-03T12:12:55;2.30;;;0.63;;
5277;SDS011;2662;51.194;6.614;2023-04-03T12:15:43;0.70;;;0.70;;
5277;SDS011;2662;51.194;6.614;2023-04-03T12:24:33;2.87;;;0.77;;
5277;SDS011;2662;51.194;6.614;2023-04-03T12:27:01;0.70;;;0.60;;
5277;SDS011;2662;51.194;6.614;2023-04-03T12:29:36;2.60;;;0.77;;
5277;SDS011;2662;51.194;6.614;2023-04-03T12:32:11;0.80;;;0.63;;
5277;SDS011;2662;51.194;6.614;2023-04-03T12:34:56;0.93;;;0.80;;
5277;SDS011;2662;51.194;6.614;2023-04-03T12:40:34;1.93;;;0.90;;
5277;SDS011;2662;51.194;6.614;2023-04-03T12:45:59;1.33;;;0.70;;
5277;SDS011;2662;51.194;6.614;2023-04-03T12:48:30;1.30;;;1.20;;
5277;SDS011;2662;51.194;6.614;2023-04-03T12:50:59;1.00;;;0.80;;
5277;SDS011;2662;51.194;6.614;2023-04-03T12:53:27;2.13;;;0.97;;
5277;SDS011;2662;51.194;6.614;2023-04-03T12:58:46;2.20;;;0.90;;
5277;SDS011;2662;51.194;6.614;2023-04-03T13:01:14;2.70;;;0.93;;
5277;SDS011;2662;51.194;6.614;2023-04-03T13:03:43;1.77;;;0.90;;
5277;SDS011;2662;51.194;6.614;2023-04-03T13:06:14;2.10;;;1.00;;
5277;SDS011;2662;51.194;6.614;2023-04-03T13:08:54;2.20;;;1.10;;
5277;SDS011;2662;51.194;6.614;2023-04-03T13:11:23;0.63;;;0.63;;
5277;SDS011;2662;51.194;6.614;2023-04-03T13:13:58;1.10;;;0.87;;
5277;SDS011;2662;51.194;6.614;2023-04-03T13:16:27;1.83;;;1.10;;
5277;SDS011;2662;51.194;6.614;2023-04-03T13:18:54;7.63;;;1.00;;
5277;SDS011;2662;51.194;6.614;2023-04-03T13:21:23;1.80;;;1.00;;
5277;SDS011;2662;51.194;6.614;2023-04-03T13:23:53;3.40;;;1.20;;
5277;SDS011;2662;51.194;6.614;2023-04-03T13:26:22;0.80;;;0.73;;
5277;SDS011;2662;51.194;6.614;2023-04-03T13:28:52;0.83;;;0.80;;
5277;SDS011;2662;51.194;6.614;2023-04-03T13:31:22;4.53;;;0.97;;
5277;SDS011;2662;51.194;6.614;2023-04-03T13:34:02;2.70;;;1.03;;
5277;SDS011;2662;51.194;6.614;2023-04-03T13:36:34;1.77;;;1.10;;
5277;SDS011;2662;51.194;6.614;2023-04-03T13:39:03;1.00;;;0.90;;
5277;SDS011;2662;51.194;6.614;2023-04-03T13:41:33;2.70;;;1.00;;
5277;SDS011;2662;51.194;6.614;2023-04-03T13:44:18;2.53;;;0.87;;
5277;SDS011;2662;51.194;6.614;2023-04-03T13:46:56;1.17;;;0.90;;
5277;SDS011;2662;51.194;6.614;2023-04-03T13:49:29;2.40;;;0.83;;
5277;SDS011;2662;51.194;6.614;2023-04-03T13:52:00;1.47;;;0.93;;
5277;SDS011;2662;51.194;6.614;2023-04-03T13:54:30;2.40;;;0.80;;
5277;SDS011;2662;51.194;6.614;2023-04-03T13:56:59;2.23;;;1.20;;
5277;SDS011;2662;51.194;6.614;2023-04-03T13:59:29;1.20;;;0.70;;
5277;SDS011;2662;51.194;6.614;2023-04-03T14:02:09;0.93;;;0.90;;
5277;SDS011;2662;51.194;6.614;2023-04-03T14:04:46;1.53;;;0.97;;
5277;SDS011;2662;51.194;6.614;2023-04-03T14:07:17;0.87;;;0.77;;
5277;SDS011;2662;51.194;6.614;2023-04-03T14:09:45;1.37;;;0.97;;
5277;SDS011;2662;51.194;6.614;2023-04-03T14:12:13;1.83;;;0.83;;
5277;SDS011;2662;51.194;6.614;2023-04-03T14:14:42;2.73;;;0.83;;
5277;SDS011;2662;51.194;6.614;2023-04-03T14:17:13;0.93;;;0.80;;
5277;SDS011;2662;51.194;6.614;2023-04-03T14:19:41;3.57;;;1.00;;
5277;SDS011;2662;51.194;6.614;2023-04-03T14:22:11;1.00;;;0.90;;
5277;SDS011;2662;51.194;6.614;2023-04-03T14:24:43;4.63;;;1.23;;
5277;SDS011;2662;51.194;6.614;2023-04-03T14:27:13;5.90;;;1.07;;
5277;SDS011;2662;51.194;6.614;2023-04-03T14:29:43;2.40;;;0.87;;
5277;SDS011;2662;51.194;6.614;2023-04-03T14:32:10;1.47;;;0.80;;
5277;SDS011;2662;51.194;6.614;2023-04-03T14:34:38;1.50;;;0.90;;
5277;SDS011;2662;51.194;6.614;2023-04-03T14:37:08;3.03;;;1.00;;
5277;SDS011;2662;51.194;6.614;2023-04-03T14:39:36;5.17;;;0.73;;
5277;SDS011;2662;51.194;6.614;2023-04-03T14:42:05;1.10;;;1.00;;
5277;SDS011;2662;51.194;6.614;2023-04-03T14:44:32;5.10;;;1.03;;
5277;SDS011;2662;51.194;6.614;2023-04-03T14:46:59;3.97;;;0.90;;
5277;SDS011;2662;51.194;6.614;2023-04-03T14:49:27;1.37;;;0.93;;
5277;SDS011;2662;51.194;6.614;2023-04-03T14:51:55;2.10;;;1.00;;
5277;SDS011;2662;51.194;6.614;2023-04-03T14:54:22;1.83;;;1.00;;
5277;SDS011;2662;51.194;6.614;2023-04-03T14:56:52;2.63;;;1.27;;
5277;SDS011;2662;51.194;6.614;2023-04-03T14:59:21;1.90;;;1.00;;
5277;SDS011;2662;51.194;6.614;2023-04-03T15:01:49;2.10;;;1.00;;
5277;SDS011;2662;51.194;6.614;2023-04-03T15:04:16;2.10;;;1.10;;
5277;SDS011;2662;51.194;6.614;2023-04-03T15:06:44;2.70;;;0.90;;
5277;SDS011;2662;51.194;6.614;2023-04-03T15:09:14;1.53;;;0.80;;
5277;SDS011;2662;51.194;6.614;2023-04-03T15:11:46;1.13;;;1.00;;
5277;SDS011;2662;51.194;6.614;2023-04-03T15:14:13;1.00;;;0.90;;
5277;SDS011;2662;51.194;6.614;2023-04-03T15:16:41;1.27;;;0.87;;
5277;SDS011;2662;51.194;6.614;2023-04-03T15:19:08;1.40;;;1.30;;
5277;SDS011;2662;51.194;6.614;2023-04-03T15:21:35;1.27;;;0.90;;
5277;SDS011;2662;51.194;6.614;2023-04-03T15:24:02;1.43;;;1.00;;
5277;SDS011;2662;51.194;6.614;2023-04-03T15:26:29;0.87;;;0.60;;
5277;SDS011;2662;51.194;6.614;2023-04-03T15:28:57;2.20;;;1.47;;
5277;SDS011;2662;51.194;6.614;2023-04-03T15:31:24;1.23;;;0.93;;
5277;SDS011;2662;51.194;6.614;2023-04-03T15:33:52;3.37;;;0.80;;
5277;SDS011;2662;51.194;6.614;2023-04-03T15:36:18;0.90;;;0.80;;
5277;SDS011;2662;51.194;6.614;2023-04-03T15:38:45;3.60;;;1.27;;
5277;SDS011;2662;51.194;6.614;2023-04-03T15:41:12;1.23;;;1.00;;
5277;SDS011;2662;51.194;6.614;2023-04-03T15:43:38;1.57;;;1.07;;
5277;SDS011;2662;51.194;6.614;2023-04-03T15:46:05;4.57;;;1.20;;
5277;SDS011;2662;51.194;6.614;2023-04-03T15:48:32;1.73;;;1.20;;
5277;SDS011;2662;51.194;6.614;2023-04-03T15:51:00;2.50;;;0.90;;
5277;SDS011;2662;51.194;6.614;2023-04-03T15:53:27;0.80;;;0.80;;
5277;SDS011;2662;51.194;6.614;2023-04-03T15:55:54;1.80;;;0.90;;
5277;SDS011;2662;51.194;6.614;2023-04-03T15:58:20;3.90;;;1.00;;